sensor_id;sensor_type;location;lat;lon;timestamp;P1;durP1;ratioP1;P2;durP2;ratioP2
56541;SDS011;42438;53.174;6.730;2023-05-14T00:01:17;18.27;;;10.65;;
56541;SDS011;42438;53.174;6.730;2023-05-14T00:03:48;16.10;;;10.27;;
56541;SDS011;42438;53.174;6.730;2023-05-14T00:06:18;19.15;;;10.63;;
56541;SDS011;42438;53.174;6.730;2023-05-14T00:08:49;17.40;;;10.10;;
56541;SDS011;42438;53.174;6.730;2023-05-14T00:11:19;19.45;;;10.25;;
56541;SDS011;42438;53.174;6.730;2023-05-14T00:13:50;16.33;;;9.38;;
56541;SDS011;42438;53.174;6.730;2023-05-14T00:16:21;16.67;;;9.43;;
56541;SDS011;42438;53.174;6.730;2023-05-14T00:18:51;16.38;;;10.23;;
56541;SDS011;42438;53.174;6.730;2023-05-14T00:21:22;19.52;;;10.10;;
56541;SDS011;42438;53.174;6.730;2023-05-14T00:23:52;18.55;;;10.40;;
56541;SDS011;42438;53.174;6.730;2023-05-14T00:26:23;13.70;;;8.85;;
56541;SDS011;42438;53.174;6.730;2023-05-14T00:28:54;15.27;;;9.55;;
56541;SDS011;42438;53.174;6.730;2023-05-14T00:31:24;15.55;;;9.77;;
56541;SDS011;42438;53.174;6.730;2023-05-14T00:33:55;15.18;;;9.68;;
56541;SDS011;42438;53.174;6.730;2023-05-14T00:36:26;18.02;;;9.40;;
56541;SDS011;42438;53.174;6.730;2023-05-14T00:38:56;16.80;;;9.35;;
56541;SDS011;42438;53.174;6.730;2023-05-14T00:41:27;15.27;;;9.32;;
56541;SDS011;42438;53.174;6.730;2023-05-14T00:43:57;17.88;;;9.60;;
56541;SDS011;42438;53.174;6.730;2023-05-14T00:46:28;17.38;;;9.57;;
56541;SDS011;42438;53.174;6.730;2023-05-14T00:48:59;16.25;;;9.25;;
56541;SDS011;42438;53.174;6.730;2023-05-14T00:51:30;14.50;;;9.25;;
56541;SDS011;42438;53.174;6.730;2023-05-14T00:54:00;15.25;;;7.88;;
56541;SDS011;42438;53.174;6.730;2023-05-14T00:56:32;15.23;;;8.00;;
56541;SDS011;42438;53.174;6.730;2023-05-14T00:59:03;13.77;;;7.60;;
56541;SDS011;42438;53.174;6.730;2023-05-14T01:01:34;15.85;;;8.73;;
56541;SDS011;42438;53.174;6.730;2023-05-14T01:04:05;13.18;;;8.63;;
56541;SDS011;42438;53.174;6.730;2023-05-14T01:07:00;15.77;;;8.45;;
56541;SDS011;42438;53.174;6.730;2023-05-14T01:12:32;11.73;;;7.65;;
56541;SDS011;42438;53.174;6.730;2023-05-14T01:15:09;12.45;;;7.00;;
56541;SDS011;42438;53.174;6.730;2023-05-14T01:17:42;12.93;;;7.57;;
56541;SDS011;42438;53.174;6.730;2023-05-14T01:20:33;15.98;;;7.75;;
56541;SDS011;42438;53.174;6.730;2023-05-14T01:23:05;13.43;;;7.72;;
56541;SDS011;42438;53.174;6.730;2023-05-14T01:25:35;10.65;;;6.75;;
56541;SDS011;42438;53.174;6.730;2023-05-14T01:33:15;15.32;;;8.00;;
56541;SDS011;42438;53.174;6.730;2023-05-14T01:35:47;13.98;;;7.15;;
56541;SDS011;42438;53.174;6.730;2023-05-14T01:38:18;11.40;;;6.53;;
56541;SDS011;42438;53.174;6.730;2023-05-14T01:40:50;9.07;;;6.05;;
56541;SDS011;42438;53.174;6.730;2023-05-14T01:43:22;12.93;;;6.65;;
56541;SDS011;42438;53.174;6.730;2023-05-14T01:45:53;13.48;;;7.10;;
56541;SDS011;42438;53.174;6.730;2023-05-14T01:48:24;9.30;;;6.32;;
56541;SDS011;42438;53.174;6.730;2023-05-14T01:50:55;10.43;;;7.50;;
56541;SDS011;42438;53.174;6.730;2023-05-14T01:53:25;14.10;;;7.00;;
56541;SDS011;42438;53.174;6.730;2023-05-14T01:55:56;11.50;;;7.32;;
56541;SDS011;42438;53.174;6.730;2023-05-14T01:58:27;12.13;;;6.35;;
56541;SDS011;42438;53.174;6.730;2023-05-14T02:00:57;9.90;;;6.05;;
56541;SDS011;42438;53.174;6.730;2023-05-14T02:03:28;12.63;;;6.95;;
56541;SDS011;42438;53.174;6.730;2023-05-14T02:05:58;10.15;;;5.88;;
56541;SDS011;42438;53.174;6.730;2023-05-14T02:08:29;9.60;;;6.10;;
56541;SDS011;42438;53.174;6.730;2023-05-14T02:11:00;9.10;;;5.95;;
56541;SDS011;42438;53.174;6.730;2023-05-14T02:13:30;8.32;;;5.78;;
56541;SDS011;42438;53.174;6.730;2023-05-14T02:16:01;8.88;;;5.97;;
56541;SDS011;42438;53.174;6.730;2023-05-14T02:18:32;12.85;;;6.97;;
56541;SDS011;42438;53.174;6.730;2023-05-14T02:21:02;12.02;;;6.65;;
56541;SDS011;42438;53.174;6.730;2023-05-14T02:23:33;13.23;;;7.25;;
56541;SDS011;42438;53.174;6.730;2023-05-14T02:26:04;15.23;;;7.53;;
56541;SDS011;42438;53.174;6.730;2023-05-14T02:28:34;13.80;;;7.55;;
56541;SDS011;42438;53.174;6.730;2023-05-14T02:31:05;14.85;;;7.70;;
56541;SDS011;42438;53.174;6.730;2023-05-14T02:33:36;14.77;;;7.15;;
56541;SDS011;42438;53.174;6.730;2023-05-14T02:36:06;14.93;;;7.15;;
56541;SDS011;42438;53.174;6.730;2023-05-14T02:38:37;12.73;;;7.15;;
56541;SDS011;42438;53.174;6.730;2023-05-14T02:41:08;13.00;;;6.68;;
56541;SDS011;42438;53.174;6.730;2023-05-14T02:43:39;11.20;;;6.20;;
56541;SDS011;42438;53.174;6.730;2023-05-14T02:46:10;16.02;;;7.15;;
56541;SDS011;42438;53.174;6.730;2023-05-14T02:48:40;15.55;;;7.18;;
56541;SDS011;42438;53.174;6.730;2023-05-14T02:51:11;14.43;;;8.18;;
56541;SDS011;42438;53.174;6.730;2023-05-14T02:53:42;12.98;;;7.18;;
56541;SDS011;42438;53.174;6.730;2023-05-14T02:56:12;11.82;;;6.57;;
56541;SDS011;42438;53.174;6.730;2023-05-14T02:58:43;11.98;;;6.53;;
56541;SDS011;42438;53.174;6.730;2023-05-14T03:01:13;10.60;;;7.18;;
56541;SDS011;42438;53.174;6.730;2023-05-14T03:03:44;13.10;;;7.28;;
56541;SDS011;42438;53.174;6.730;2023-05-14T03:06:14;14.13;;;7.47;;
56541;SDS011;42438;53.174;6.730;2023-05-14T03:08:45;12.35;;;6.38;;
56541;SDS011;42438;53.174;6.730;2023-05-14T03:11:16;10.25;;;6.50;;
56541;SDS011;42438;53.174;6.730;2023-05-14T03:13:46;12.80;;;6.85;;
56541;SDS011;42438;53.174;6.730;2023-05-14T03:16:17;10.57;;;6.25;;
56541;SDS011;42438;53.174;6.730;2023-05-14T03:18:48;12.00;;;7.03;;
56541;SDS011;42438;53.174;6.730;2023-05-14T03:21:18;16.42;;;6.38;;
56541;SDS011;42438;53.174;6.730;2023-05-14T03:23:50;10.77;;;6.15;;
56541;SDS011;42438;53.174;6.730;2023-05-14T03:26:22;11.02;;;6.13;;
56541;SDS011;42438;53.174;6.730;2023-05-14T03:28:52;10.82;;;6.28;;
56541;SDS011;42438;53.174;6.730;2023-05-14T03:31:23;11.52;;;5.85;;
56541;SDS011;42438;53.174;6.730;2023-05-14T03:33:54;10.05;;;6.07;;
56541;SDS011;42438;53.174;6.730;2023-05-14T03:36:25;13.93;;;6.72;;
56541;SDS011;42438;53.174;6.730;2023-05-14T03:38:56;16.17;;;7.05;;
56541;SDS011;42438;53.174;6.730;2023-05-14T03:41:26;13.35;;;8.00;;
56541;SDS011;42438;53.174;6.730;2023-05-14T03:43:57;15.68;;;6.68;;
56541;SDS011;42438;53.174;6.730;2023-05-14T03:46:27;86.10;;;8.65;;
56541;SDS011;42438;53.174;6.730;2023-05-14T03:48:58;13.60;;;5.15;;
56541;SDS011;42438;53.174;6.730;2023-05-14T03:51:29;20.88;;;5.78;;
56541;SDS011;42438;53.174;6.730;2023-05-14T03:54:02;13.00;;;6.25;;
56541;SDS011;42438;53.174;6.730;2023-05-14T03:56:33;13.38;;;7.35;;
56541;SDS011;42438;53.174;6.730;2023-05-14T03:59:04;14.30;;;7.28;;
56541;SDS011;42438;53.174;6.730;2023-05-14T04:01:34;13.55;;;7.72;;
56541;SDS011;42438;53.174;6.730;2023-05-14T04:04:05;15.30;;;7.43;;
56541;SDS011;42438;53.174;6.730;2023-05-14T04:06:36;15.23;;;7.82;;
56541;SDS011;42438;53.174;6.730;2023-05-14T04:09:06;16.02;;;7.60;;
56541;SDS011;42438;53.174;6.730;2023-05-14T04:11:37;68.95;;;10.13;;
56541;SDS011;42438;53.174;6.730;2023-05-14T04:14:07;16.58;;;7.05;;
56541;SDS011;42438;53.174;6.730;2023-05-14T04:16:38;13.50;;;5.32;;
56541;SDS011;42438;53.174;6.730;2023-05-14T04:19:09;15.35;;;5.28;;
56541;SDS011;42438;53.174;6.730;2023-05-14T04:21:39;7.32;;;4.68;;
56541;SDS011;42438;53.174;6.730;2023-05-14T04:24:10;16.83;;;7.57;;
56541;SDS011;42438;53.174;6.730;2023-05-14T04:26:40;18.60;;;8.35;;
56541;SDS011;42438;53.174;6.730;2023-05-14T04:29:11;19.05;;;8.52;;
56541;SDS011;42438;53.174;6.730;2023-05-14T04:31:43;14.73;;;7.47;;
56541;SDS011;42438;53.174;6.730;2023-05-14T04:34:13;19.83;;;9.50;;
56541;SDS011;42438;53.174;6.730;2023-05-14T04:36:44;23.77;;;9.38;;
56541;SDS011;42438;53.174;6.730;2023-05-14T04:39:15;18.27;;;8.45;;
56541;SDS011;42438;53.174;6.730;2023-05-14T04:41:46;16.50;;;7.90;;
56541;SDS011;42438;53.174;6.730;2023-05-14T04:44:16;13.98;;;8.68;;
56541;SDS011;42438;53.174;6.730;2023-05-14T04:46:47;21.55;;;10.13;;
56541;SDS011;42438;53.174;6.730;2023-05-14T04:49:18;16.80;;;9.00;;
56541;SDS011;42438;53.174;6.730;2023-05-14T04:51:49;19.27;;;9.88;;
56541;SDS011;42438;53.174;6.730;2023-05-14T04:54:20;15.15;;;8.88;;
56541;SDS011;42438;53.174;6.730;2023-05-14T04:56:51;15.65;;;8.30;;
56541;SDS011;42438;53.174;6.730;2023-05-14T04:59:21;19.88;;;9.13;;
56541;SDS011;42438;53.174;6.730;2023-05-14T05:01:52;18.27;;;9.27;;
56541;SDS011;42438;53.174;6.730;2023-05-14T05:04:23;17.13;;;9.20;;
56541;SDS011;42438;53.174;6.730;2023-05-14T05:06:53;19.73;;;10.35;;
56541;SDS011;42438;53.174;6.730;2023-05-14T05:09:24;18.77;;;9.25;;
56541;SDS011;42438;53.174;6.730;2023-05-14T05:11:54;16.60;;;9.68;;
56541;SDS011;42438;53.174;6.730;2023-05-14T05:14:25;15.85;;;9.23;;
56541;SDS011;42438;53.174;6.730;2023-05-14T05:16:56;16.55;;;9.60;;
56541;SDS011;42438;53.174;6.730;2023-05-14T05:19:27;15.55;;;8.82;;
56541;SDS011;42438;53.174;6.730;2023-05-14T05:21:57;23.30;;;10.23;;
56541;SDS011;42438;53.174;6.730;2023-05-14T05:24:28;21.75;;;9.65;;
56541;SDS011;42438;53.174;6.730;2023-05-14T05:26:58;14.80;;;8.10;;
56541;SDS011;42438;53.174;6.730;2023-05-14T05:29:29;22.05;;;10.93;;
56541;SDS011;42438;53.174;6.730;2023-05-14T05:32:00;18.08;;;9.45;;
56541;SDS011;42438;53.174;6.730;2023-05-14T05:34:31;18.13;;;9.00;;
56541;SDS011;42438;53.174;6.730;2023-05-14T05:37:02;19.45;;;9.63;;
56541;SDS011;42438;53.174;6.730;2023-05-14T05:39:32;19.60;;;8.27;;
56541;SDS011;42438;53.174;6.730;2023-05-14T05:42:04;19.15;;;9.65;;
56541;SDS011;42438;53.174;6.730;2023-05-14T05:44:35;17.35;;;8.63;;
56541;SDS011;42438;53.174;6.730;2023-05-14T05:47:05;16.58;;;9.40;;
56541;SDS011;42438;53.174;6.730;2023-05-14T05:49:36;21.52;;;9.23;;
56541;SDS011;42438;53.174;6.730;2023-05-14T05:52:06;22.27;;;9.63;;
56541;SDS011;42438;53.174;6.730;2023-05-14T05:54:37;23.30;;;9.68;;
56541;SDS011;42438;53.174;6.730;2023-05-14T05:57:08;15.43;;;9.07;;
56541;SDS011;42438;53.174;6.730;2023-05-14T05:59:39;22.27;;;9.10;;
56541;SDS011;42438;53.174;6.730;2023-05-14T06:02:10;18.48;;;8.57;;
56541;SDS011;42438;53.174;6.730;2023-05-14T06:04:40;15.93;;;7.88;;
56541;SDS011;42438;53.174;6.730;2023-05-14T06:07:11;18.10;;;8.18;;
56541;SDS011;42438;53.174;6.730;2023-05-14T06:09:41;16.17;;;7.82;;
56541;SDS011;42438;53.174;6.730;2023-05-14T06:12:12;13.32;;;7.60;;
56541;SDS011;42438;53.174;6.730;2023-05-14T06:14:43;13.55;;;7.10;;
56541;SDS011;42438;53.174;6.730;2023-05-14T06:17:13;17.30;;;7.65;;
56541;SDS011;42438;53.174;6.730;2023-05-14T06:19:44;13.27;;;7.85;;
56541;SDS011;42438;53.174;6.730;2023-05-14T06:22:14;15.18;;;7.03;;
56541;SDS011;42438;53.174;6.730;2023-05-14T06:24:46;17.85;;;7.47;;
56541;SDS011;42438;53.174;6.730;2023-05-14T06:27:17;12.80;;;7.63;;
56541;SDS011;42438;53.174;6.730;2023-05-14T06:29:47;13.82;;;6.90;;
56541;SDS011;42438;53.174;6.730;2023-05-14T06:32:18;16.52;;;6.85;;
56541;SDS011;42438;53.174;6.730;2023-05-14T06:34:49;14.23;;;6.95;;
56541;SDS011;42438;53.174;6.730;2023-05-14T06:37:19;17.77;;;7.25;;
56541;SDS011;42438;53.174;6.730;2023-05-14T06:39:50;16.42;;;6.15;;
56541;SDS011;42438;53.174;6.730;2023-05-14T06:42:21;15.57;;;6.38;;
56541;SDS011;42438;53.174;6.730;2023-05-14T06:44:51;16.77;;;6.88;;
56541;SDS011;42438;53.174;6.730;2023-05-14T06:47:22;16.88;;;7.13;;
56541;SDS011;42438;53.174;6.730;2023-05-14T06:49:53;14.20;;;7.07;;
56541;SDS011;42438;53.174;6.730;2023-05-14T06:52:25;10.82;;;6.75;;
56541;SDS011;42438;53.174;6.730;2023-05-14T06:54:55;15.18;;;6.88;;
56541;SDS011;42438;53.174;6.730;2023-05-14T06:57:26;18.00;;;6.63;;
56541;SDS011;42438;53.174;6.730;2023-05-14T06:59:56;13.25;;;6.43;;
56541;SDS011;42438;53.174;6.730;2023-05-14T07:02:27;17.33;;;6.72;;
56541;SDS011;42438;53.174;6.730;2023-05-14T07:04:58;11.38;;;6.60;;
56541;SDS011;42438;53.174;6.730;2023-05-14T07:07:28;12.07;;;6.40;;
56541;SDS011;42438;53.174;6.730;2023-05-14T07:09:59;12.30;;;6.53;;
56541;SDS011;42438;53.174;6.730;2023-05-14T07:12:30;15.35;;;6.18;;
56541;SDS011;42438;53.174;6.730;2023-05-14T07:15:01;12.60;;;5.97;;
56541;SDS011;42438;53.174;6.730;2023-05-14T07:17:31;14.57;;;6.38;;
56541;SDS011;42438;53.174;6.730;2023-05-14T07:20:02;14.05;;;6.03;;
56541;SDS011;42438;53.174;6.730;2023-05-14T07:22:33;11.73;;;6.07;;
56541;SDS011;42438;53.174;6.730;2023-05-14T07:25:04;14.65;;;6.35;;
56541;SDS011;42438;53.174;6.730;2023-05-14T07:27:35;11.00;;;6.20;;
56541;SDS011;42438;53.174;6.730;2023-05-14T07:30:06;11.57;;;6.63;;
56541;SDS011;42438;53.174;6.730;2023-05-14T07:32:37;10.93;;;6.70;;
56541;SDS011;42438;53.174;6.730;2023-05-14T07:35:08;13.82;;;5.85;;
56541;SDS011;42438;53.174;6.730;2023-05-14T07:37:38;14.80;;;6.85;;
56541;SDS011;42438;53.174;6.730;2023-05-14T07:40:09;11.05;;;5.70;;
56541;SDS011;42438;53.174;6.730;2023-05-14T07:42:40;9.77;;;5.72;;
56541;SDS011;42438;53.174;6.730;2023-05-14T07:45:11;11.93;;;5.78;;
56541;SDS011;42438;53.174;6.730;2023-05-14T07:47:41;8.85;;;5.95;;
56541;SDS011;42438;53.174;6.730;2023-05-14T07:50:12;14.38;;;7.95;;
56541;SDS011;42438;53.174;6.730;2023-05-14T07:52:43;11.50;;;5.70;;
56541;SDS011;42438;53.174;6.730;2023-05-14T07:55:14;14.52;;;6.75;;
56541;SDS011;42438;53.174;6.730;2023-05-14T07:57:44;12.60;;;6.22;;
56541;SDS011;42438;53.174;6.730;2023-05-14T08:00:15;10.02;;;6.00;;
56541;SDS011;42438;53.174;6.730;2023-05-14T08:02:46;14.90;;;6.40;;
56541;SDS011;42438;53.174;6.730;2023-05-14T08:05:17;11.50;;;6.15;;
56541;SDS011;42438;53.174;6.730;2023-05-14T08:07:48;13.02;;;6.57;;
56541;SDS011;42438;53.174;6.730;2023-05-14T08:10:19;13.55;;;5.70;;
56541;SDS011;42438;53.174;6.730;2023-05-14T08:12:49;11.25;;;6.22;;
56541;SDS011;42438;53.174;6.730;2023-05-14T08:15:20;13.32;;;6.40;;
56541;SDS011;42438;53.174;6.730;2023-05-14T08:17:50;10.13;;;6.18;;
56541;SDS011;42438;53.174;6.730;2023-05-14T08:20:21;11.38;;;6.43;;
56541;SDS011;42438;53.174;6.730;2023-05-14T08:22:52;12.93;;;6.40;;
56541;SDS011;42438;53.174;6.730;2023-05-14T08:25:23;11.70;;;5.97;;
56541;SDS011;42438;53.174;6.730;2023-05-14T08:27:54;11.15;;;6.32;;
56541;SDS011;42438;53.174;6.730;2023-05-14T08:30:24;9.27;;;6.07;;
56541;SDS011;42438;53.174;6.730;2023-05-14T08:32:55;13.32;;;7.00;;
56541;SDS011;42438;53.174;6.730;2023-05-14T08:35:27;9.13;;;5.85;;
56541;SDS011;42438;53.174;6.730;2023-05-14T08:37:57;10.73;;;5.97;;
56541;SDS011;42438;53.174;6.730;2023-05-14T08:40:28;11.55;;;5.70;;
56541;SDS011;42438;53.174;6.730;2023-05-14T08:42:59;9.95;;;6.00;;
56541;SDS011;42438;53.174;6.730;2023-05-14T08:45:31;10.82;;;6.93;;
56541;SDS011;42438;53.174;6.730;2023-05-14T08:48:03;10.38;;;5.88;;
56541;SDS011;42438;53.174;6.730;2023-05-14T08:50:37;10.38;;;6.95;;
56541;SDS011;42438;53.174;6.730;2023-05-14T08:53:08;7.53;;;6.32;;
56541;SDS011;42438;53.174;6.730;2023-05-14T08:55:40;10.07;;;6.50;;
56541;SDS011;42438;53.174;6.730;2023-05-14T08:58:13;10.38;;;6.28;;
56541;SDS011;42438;53.174;6.730;2023-05-14T09:00:43;9.05;;;6.35;;
56541;SDS011;42438;53.174;6.730;2023-05-14T09:03:14;12.57;;;6.35;;
56541;SDS011;42438;53.174;6.730;2023-05-14T09:05:46;12.02;;;7.38;;
56541;SDS011;42438;53.174;6.730;2023-05-14T09:08:20;16.48;;;7.50;;
56541;SDS011;42438;53.174;6.730;2023-05-14T09:10:51;11.73;;;7.78;;
56541;SDS011;42438;53.174;6.730;2023-05-14T09:13:21;14.57;;;8.02;;
56541;SDS011;42438;53.174;6.730;2023-05-14T09:15:52;13.15;;;7.72;;
56541;SDS011;42438;53.174;6.730;2023-05-14T09:18:24;12.38;;;8.50;;
56541;SDS011;42438;53.174;6.730;2023-05-14T09:20:54;12.32;;;8.00;;
56541;SDS011;42438;53.174;6.730;2023-05-14T09:23:25;13.02;;;7.97;;
56541;SDS011;42438;53.174;6.730;2023-05-14T09:26:04;11.45;;;7.60;;
56541;SDS011;42438;53.174;6.730;2023-05-14T09:28:38;12.85;;;8.68;;
56541;SDS011;42438;53.174;6.730;2023-05-14T09:31:10;10.32;;;7.68;;
56541;SDS011;42438;53.174;6.730;2023-05-14T09:33:41;14.52;;;9.60;;
56541;SDS011;42438;53.174;6.730;2023-05-14T09:36:12;11.35;;;8.30;;
56541;SDS011;42438;53.174;6.730;2023-05-14T09:38:42;9.63;;;7.78;;
56541;SDS011;42438;53.174;6.730;2023-05-14T09:41:13;12.38;;;8.02;;
56541;SDS011;42438;53.174;6.730;2023-05-14T09:43:44;11.30;;;8.90;;
56541;SDS011;42438;53.174;6.730;2023-05-14T09:46:15;13.32;;;8.27;;
56541;SDS011;42438;53.174;6.730;2023-05-14T09:48:46;10.73;;;7.85;;
56541;SDS011;42438;53.174;6.730;2023-05-14T09:51:16;13.77;;;8.05;;
56541;SDS011;42438;53.174;6.730;2023-05-14T09:53:47;11.80;;;7.85;;
56541;SDS011;42438;53.174;6.730;2023-05-14T09:56:20;11.80;;;8.70;;
56541;SDS011;42438;53.174;6.730;2023-05-14T09:58:50;10.82;;;8.07;;
56541;SDS011;42438;53.174;6.730;2023-05-14T10:01:21;10.73;;;8.38;;
56541;SDS011;42438;53.174;6.730;2023-05-14T10:03:52;9.88;;;7.10;;
56541;SDS011;42438;53.174;6.730;2023-05-14T10:06:27;8.63;;;6.68;;
56541;SDS011;42438;53.174;6.730;2023-05-14T10:09:02;9.45;;;6.72;;
56541;SDS011;42438;53.174;6.730;2023-05-14T10:11:36;8.48;;;6.40;;
56541;SDS011;42438;53.174;6.730;2023-05-14T10:16:47;7.20;;;5.40;;
56541;SDS011;42438;53.174;6.730;2023-05-14T10:19:20;8.13;;;5.70;;
56541;SDS011;42438;53.174;6.730;2023-05-14T10:21:58;5.97;;;5.03;;
56541;SDS011;42438;53.174;6.730;2023-05-14T10:24:34;7.70;;;6.03;;
56541;SDS011;42438;53.174;6.730;2023-05-14T10:29:38;8.30;;;5.53;;
56541;SDS011;42438;53.174;6.730;2023-05-14T10:32:08;7.68;;;5.35;;
56541;SDS011;42438;53.174;6.730;2023-05-14T10:34:40;7.10;;;5.47;;
56541;SDS011;42438;53.174;6.730;2023-05-14T10:37:16;10.10;;;5.82;;
56541;SDS011;42438;53.174;6.730;2023-05-14T10:39:58;9.07;;;6.28;;
56541;SDS011;42438;53.174;6.730;2023-05-14T10:42:34;8.98;;;5.78;;
56541;SDS011;42438;53.174;6.730;2023-05-14T10:45:13;8.82;;;5.63;;
56541;SDS011;42438;53.174;6.730;2023-05-14T10:47:44;7.40;;;5.38;;
56541;SDS011;42438;53.174;6.730;2023-05-14T10:50:16;8.13;;;5.38;;
56541;SDS011;42438;53.174;6.730;2023-05-14T10:52:47;8.73;;;5.40;;
56541;SDS011;42438;53.174;6.730;2023-05-14T10:55:18;6.70;;;4.90;;
56541;SDS011;42438;53.174;6.730;2023-05-14T10:57:50;6.63;;;5.22;;
56541;SDS011;42438;53.174;6.730;2023-05-14T11:00:21;7.40;;;5.07;;
56541;SDS011;42438;53.174;6.730;2023-05-14T11:02:56;6.28;;;4.40;;
56541;SDS011;42438;53.174;6.730;2023-05-14T11:05:27;7.53;;;4.65;;
56541;SDS011;42438;53.174;6.730;2023-05-14T11:07:58;6.57;;;4.35;;
56541;SDS011;42438;53.174;6.730;2023-05-14T11:10:31;6.15;;;4.65;;
56541;SDS011;42438;53.174;6.730;2023-05-14T11:13:01;7.03;;;4.55;;
56541;SDS011;42438;53.174;6.730;2023-05-14T11:15:32;6.55;;;4.30;;
56541;SDS011;42438;53.174;6.730;2023-05-14T11:18:03;6.47;;;4.10;;
56541;SDS011;42438;53.174;6.730;2023-05-14T11:20:34;5.38;;;4.28;;
56541;SDS011;42438;53.174;6.730;2023-05-14T11:23:05;8.75;;;4.72;;
56541;SDS011;42438;53.174;6.730;2023-05-14T11:25:35;6.03;;;4.82;;
56541;SDS011;42438;53.174;6.730;2023-05-14T11:28:06;6.63;;;4.88;;
56541;SDS011;42438;53.174;6.730;2023-05-14T11:30:37;6.75;;;4.40;;
56541;SDS011;42438;53.174;6.730;2023-05-14T11:33:07;4.70;;;3.65;;
56541;SDS011;42438;53.174;6.730;2023-05-14T11:35:38;5.63;;;4.63;;
56541;SDS011;42438;53.174;6.730;2023-05-14T11:38:13;5.43;;;3.75;;
56541;SDS011;42438;53.174;6.730;2023-05-14T11:40:51;6.53;;;3.88;;
56541;SDS011;42438;53.174;6.730;2023-05-14T11:43:23;5.78;;;4.20;;
56541;SDS011;42438;53.174;6.730;2023-05-14T11:45:55;5.50;;;4.38;;
56541;SDS011;42438;53.174;6.730;2023-05-14T11:48:25;5.60;;;3.95;;
56541;SDS011;42438;53.174;6.730;2023-05-14T11:50:56;6.30;;;3.55;;
56541;SDS011;42438;53.174;6.730;2023-05-14T11:53:28;5.40;;;4.05;;
56541;SDS011;42438;53.174;6.730;2023-05-14T11:55:59;5.70;;;4.32;;
56541;SDS011;42438;53.174;6.730;2023-05-14T11:58:32;6.47;;;3.90;;
56541;SDS011;42438;53.174;6.730;2023-05-14T12:01:03;5.40;;;3.70;;
56541;SDS011;42438;53.174;6.730;2023-05-14T12:03:34;4.95;;;3.85;;
56541;SDS011;42438;53.174;6.730;2023-05-14T12:06:05;4.38;;;3.50;;
56541;SDS011;42438;53.174;6.730;2023-05-14T12:08:37;5.38;;;3.58;;
56541;SDS011;42438;53.174;6.730;2023-05-14T12:11:07;7.22;;;4.50;;
56541;SDS011;42438;53.174;6.730;2023-05-14T12:13:38;6.25;;;4.20;;
56541;SDS011;42438;53.174;6.730;2023-05-14T12:16:09;6.72;;;4.22;;
56541;SDS011;42438;53.174;6.730;2023-05-14T12:18:39;6.28;;;3.63;;
56541;SDS011;42438;53.174;6.730;2023-05-14T12:21:11;5.43;;;3.53;;
56541;SDS011;42438;53.174;6.730;2023-05-14T12:23:42;3.95;;;3.30;;
56541;SDS011;42438;53.174;6.730;2023-05-14T12:26:12;5.65;;;3.47;;
56541;SDS011;42438;53.174;6.730;2023-05-14T12:28:43;5.55;;;3.80;;
56541;SDS011;42438;53.174;6.730;2023-05-14T12:31:16;6.63;;;3.83;;
56541;SDS011;42438;53.174;6.730;2023-05-14T12:33:47;5.53;;;3.67;;
56541;SDS011;42438;53.174;6.730;2023-05-14T12:36:18;6.90;;;4.65;;
56541;SDS011;42438;53.174;6.730;2023-05-14T12:38:49;7.15;;;4.15;;
56541;SDS011;42438;53.174;6.730;2023-05-14T12:41:20;4.32;;;3.35;;
56541;SDS011;42438;53.174;6.730;2023-05-14T12:43:50;6.90;;;4.43;;
56541;SDS011;42438;53.174;6.730;2023-05-14T12:46:21;8.18;;;4.88;;
56541;SDS011;42438;53.174;6.730;2023-05-14T12:48:52;4.75;;;3.85;;
56541;SDS011;42438;53.174;6.730;2023-05-14T12:51:23;6.00;;;4.13;;
56541;SDS011;42438;53.174;6.730;2023-05-14T12:53:54;6.93;;;4.53;;
56541;SDS011;42438;53.174;6.730;2023-05-14T12:56:25;6.80;;;4.30;;
56541;SDS011;42438;53.174;6.730;2023-05-14T12:59:00;6.03;;;3.92;;
56541;SDS011;42438;53.174;6.730;2023-05-14T13:01:31;6.38;;;4.38;;
56541;SDS011;42438;53.174;6.730;2023-05-14T13:04:01;6.50;;;4.25;;
56541;SDS011;42438;53.174;6.730;2023-05-14T13:06:32;6.03;;;4.10;;
56541;SDS011;42438;53.174;6.730;2023-05-14T13:09:03;7.60;;;3.95;;
56541;SDS011;42438;53.174;6.730;2023-05-14T13:11:34;4.93;;;3.67;;
56541;SDS011;42438;53.174;6.730;2023-05-14T13:14:04;5.47;;;3.85;;
56541;SDS011;42438;53.174;6.730;2023-05-14T13:16:35;5.80;;;3.88;;
56541;SDS011;42438;53.174;6.730;2023-05-14T13:19:06;9.50;;;3.88;;
56541;SDS011;42438;53.174;6.730;2023-05-14T13:21:36;6.47;;;3.83;;
56541;SDS011;42438;53.174;6.730;2023-05-14T13:24:07;6.03;;;3.95;;
56541;SDS011;42438;53.174;6.730;2023-05-14T13:26:39;5.35;;;3.70;;
56541;SDS011;42438;53.174;6.730;2023-05-14T13:29:09;5.40;;;4.10;;
56541;SDS011;42438;53.174;6.730;2023-05-14T13:31:40;6.63;;;3.92;;
56541;SDS011;42438;53.174;6.730;2023-05-14T13:34:10;5.45;;;4.55;;
56541;SDS011;42438;53.174;6.730;2023-05-14T13:36:42;6.55;;;3.85;;
56541;SDS011;42438;53.174;6.730;2023-05-14T13:39:12;6.88;;;3.92;;
56541;SDS011;42438;53.174;6.730;2023-05-14T13:41:43;8.15;;;3.97;;
56541;SDS011;42438;53.174;6.730;2023-05-14T13:44:14;7.22;;;4.47;;
56541;SDS011;42438;53.174;6.730;2023-05-14T13:46:45;6.05;;;3.88;;
56541;SDS011;42438;53.174;6.730;2023-05-14T13:49:15;5.72;;;4.20;;
56541;SDS011;42438;53.174;6.730;2023-05-14T13:51:46;5.22;;;4.15;;
56541;SDS011;42438;53.174;6.730;2023-05-14T13:54:17;8.75;;;4.60;;
56541;SDS011;42438;53.174;6.730;2023-05-14T13:56:47;4.60;;;3.65;;
56541;SDS011;42438;53.174;6.730;2023-05-14T13:59:18;6.55;;;4.63;;
56541;SDS011;42438;53.174;6.730;2023-05-14T14:01:49;7.80;;;4.35;;
56541;SDS011;42438;53.174;6.730;2023-05-14T14:04:20;6.03;;;4.38;;
56541;SDS011;42438;53.174;6.730;2023-05-14T14:06:51;6.30;;;4.68;;
56541;SDS011;42438;53.174;6.730;2023-05-14T14:09:22;6.03;;;4.40;;
56541;SDS011;42438;53.174;6.730;2023-05-14T14:11:53;5.50;;;4.30;;
56541;SDS011;42438;53.174;6.730;2023-05-14T14:14:24;8.02;;;4.63;;
56541;SDS011;42438;53.174;6.730;2023-05-14T14:16:54;5.10;;;4.60;;
56541;SDS011;42438;53.174;6.730;2023-05-14T14:19:25;6.85;;;4.78;;
56541;SDS011;42438;53.174;6.730;2023-05-14T14:21:55;5.53;;;4.63;;
56541;SDS011;42438;53.174;6.730;2023-05-14T14:24:26;6.22;;;4.50;;
56541;SDS011;42438;53.174;6.730;2023-05-14T14:26:57;7.13;;;4.82;;
56541;SDS011;42438;53.174;6.730;2023-05-14T14:29:27;5.55;;;4.18;;
56541;SDS011;42438;53.174;6.730;2023-05-14T14:32:00;5.28;;;4.55;;
56541;SDS011;42438;53.174;6.730;2023-05-14T14:34:30;6.88;;;4.50;;
56541;SDS011;42438;53.174;6.730;2023-05-14T14:37:01;5.82;;;4.43;;
56541;SDS011;42438;53.174;6.730;2023-05-14T14:39:31;6.85;;;4.78;;
56541;SDS011;42438;53.174;6.730;2023-05-14T14:42:02;6.45;;;4.32;;
56541;SDS011;42438;53.174;6.730;2023-05-14T14:44:33;8.57;;;4.63;;
56541;SDS011;42438;53.174;6.730;2023-05-14T14:47:04;6.75;;;4.82;;
56541;SDS011;42438;53.174;6.730;2023-05-14T14:49:35;9.50;;;5.20;;
56541;SDS011;42438;53.174;6.730;2023-05-14T14:52:06;7.70;;;5.13;;
56541;SDS011;42438;53.174;6.730;2023-05-14T14:54:36;8.00;;;5.97;;
56541;SDS011;42438;53.174;6.730;2023-05-14T14:57:07;7.72;;;5.60;;
56541;SDS011;42438;53.174;6.730;2023-05-14T14:59:37;6.60;;;5.82;;
56541;SDS011;42438;53.174;6.730;2023-05-14T15:02:08;8.18;;;6.43;;
56541;SDS011;42438;53.174;6.730;2023-05-14T15:04:39;8.35;;;6.60;;
56541;SDS011;42438;53.174;6.730;2023-05-14T15:07:10;6.75;;;5.07;;
56541;SDS011;42438;53.174;6.730;2023-05-14T15:09:40;6.82;;;5.80;;
56541;SDS011;42438;53.174;6.730;2023-05-14T15:12:11;9.02;;;6.05;;
56541;SDS011;42438;53.174;6.730;2023-05-14T15:14:43;8.00;;;5.72;;